Brownstown, Washington
Current Conditions -  °F | °C
As of 12:53 AM on Wednesday 26 Nov 2014 (Local Time) from KYKM Reporting Station
Overcast Overcast  
Wind Chill: 39°   Ceiling: 1100
Heat Index: 39°   Visibility: 8mi
Dew Point: 35°   Wind: 0mph
Humidity: 86%   Direction: NA
Pressure: 30.18"   Gusts: NA
Location:  46.4°N, 120.61°W
Report Text: KYKM 260853Z AUTO 00000KT 8SM OVC011 04/02 A3018 RMK AO2 SLP224 T00390017 58003
Loading
Personal Weather Stations






























Interactive Weather Map New forecast layout! Learn more

10-Day Weather Forecast

Advertisements
Track Severe Weather on mobile